Data for 03/08/2013

Time Sea-Level Adjusted Pressure Absolute Pressure Temperature Relative Humidity Dew Point   
(mb) (inHg) (mb) (inHg) (C) (F) (%) (C) (F)
00:05 1016 30 845 24.95 0.8 33.5 44 -10.2 13.7
00:10 1016 30 845 24.95 0.9 33.5 43 -10.3 13.5
00:15 1016 30 845 24.95 0.9 33.5 44 -10.1 13.8
00:20 1016 30 845 24.95 0.7 33.3 45 -9.8 14.4
00:25 1016 30 845 24.95 0.5 32.8 47 -9.5 15
00:30 1016 30 845 24.95 0.2 32.3 49 -9.4 15.1
00:35 1016 30 845 24.95 0.1 32.1 49 -9.5 14.9
00:40 1016 30 845 24.95 0.1 32.1 48 -9.6 14.7
00:45 1016 30 845 24.95 0.1 32.2 48 -9.5 14.8
00:50 1016 30 845 24.95 0.3 32.5 46 -9.9 14.1
00:55 1016 30 845 24.95 0.6 33.2 44 -10.2 13.6
01:00 1016 30 845 24.95 1 33.9 43 -10.2 13.6
01:05 1016 30 845 24.95 1.2 34.2 42 -10.2 13.6
01:10 1016 30 845 24.95 1.3 34.3 43 -9.9 14.2
01:15 1016 30 845 24.95 1.3 34.3 43 -9.9 14.1
01:20 1016 30 845 24.95 1.3 34.3 42 -10.2 13.6
01:25 1016 30 845 24.95 1.3 34.3 43 -9.9 14.1
01:30 1016 30 845 24.95 1.1 34.1 43 -10 14.1
01:35 1016 30 845 24.95 1 33.9 43 -10.1 13.7
01:40 1016 30 845 24.95 1.1 34 43 -10.3 13.5
01:45 1016 30 845 24.95 1.1 34 43 -10.2 13.6
01:50 1016 30 845 24.95 1.1 33.9 43 -10.2 13.6
01:55 1016 30 845 24.95 1 33.8 42 -10.4 13.3
02:00 1016 30 845 24.95 1 33.8 43 -10.3 13.5
02:05 1016 30 845 24.95 0.9 33.7 43 -10.4 13.2
02:10 1016 30 845 24.95 0.9 33.7 43 -10.4 13.3
02:15 1016 30 845 24.95 1 33.7 43 -10.2 13.6
02:20 1016 30 845 24.95 0.9 33.6 43 -10.2 13.6
02:25 1015 29.97 845 24.95 0.9 33.6 43 -10.3 13.5
02:30 1015 29.97 845 24.95 0.9 33.5 43 -10.4 13.4
02:35 1015 29.97 845 24.95 0.9 33.5 43 -10.4 13.4
02:40 1015 29.97 845 24.95 0.8 33.5 44 -10.1 13.7
02:45 1015 29.97 845 24.95 0.8 33.4 44 -10.2 13.7
02:50 1015 29.97 845 24.95 0.8 33.4 44 -10.1 13.8
02:55 1015 29.97 845 24.95 0.8 33.4 44 -10.2 13.6
03:00 1015 29.97 845 24.95 0.7 33.2 45 -9.9 14.2
03:05 1016 30 845 24.95 0.5 32.9 47 -9.7 14.6
03:10 1016 30 845 24.95 0.4 32.7 47 -9.7 14.5
03:15 1016 30 845 24.95 0.4 32.8 46 -10 14
03:20 1016 30 845 24.95 0.5 32.9 46 -9.9 14.1
03:25 1016 30 845 24.95 0.5 32.9 48 -9.4 15.1
03:30 1016 30 845 24.95 0.1 32.2 49 -9.3 15.3
03:35 1015 29.97 845 24.95 -0.2 31.7 51 -9.1 15.7
03:40 1015 29.97 845 24.95 -0.3 31.5 51 -9.2 15.5
03:45 1016 30 845 24.95 -0.4 31.3 52 -9.1 15.7
03:50 1015 29.97 845 24.95 -0.5 31.1 53 -8.9 15.9
03:55 1015 29.97 845 24.95 -0.6 31 53 -8.9 16
04:00 1015 29.97 845 24.95 -0.6 30.9 54 -8.8 16.1
04:05 1015 29.97 845 24.95 -0.6 30.9 53 -9.1 15.7
04:10 1015 29.97 845 24.95 -0.6 30.9 53 -9 15.8
04:15 1015 29.97 844 24.92 -0.5 31 53 -9.1 15.6
04:20 1015 29.97 844 24.92 -0.4 31.3 51 -9.3 15.2
04:25 1015 29.97 844 24.92 -0.2 31.6 50 -9.4 15
04:30 1015 29.97 844 24.92 0 32.1 48 -9.8 14.4
04:35 1015 29.97 844 24.92 0.3 32.5 48 -9.5 14.8
04:40 1015 29.97 844 24.92 0.4 32.7 51 -8.7 16.3
04:45 1015 29.97 844 24.92 0.5 32.9 56 -7.3 18.8
04:50 1015 29.97 844 24.92 0.5 33 57 -7.1 19.2
04:55 1015 29.97 844 24.92 0.6 33 53 -8 17.7
05:00 1015 29.97 844 24.92 0.5 32.9 54 -7.7 18.1
05:05 1015 29.97 844 24.92 0.4 32.7 54 -7.9 17.7
05:10 1015 29.97 844 24.92 0.3 32.6 55 -7.6 18.3
05:15 1015 29.97 844 24.92 0.2 32.4 57 -7.4 18.8
05:20 1015 29.97 844 24.92 0.2 32.3 57 -7.5 18.6
05:25 1015 29.97 844 24.92 0.1 32.2 57 -7.3 18.9
05:30 1015 29.97 844 24.92 0.1 32.1 60 -6.8 19.7
05:35 1015 29.97 844 24.92 0 32.1 61 -6.6 20.1
05:40 1015 29.97 844 24.92 -0 32 60 -6.8 19.8
05:45 1015 29.97 844 24.92 -0.1 31.8 63 -6.4 20.5
05:50 1015 29.97 844 24.92 -0.2 31.6 65 -5.9 21.3
05:55 1015 29.97 844 24.92 -0.3 31.4 66 -5.9 21.4
06:00 1015 29.97 844 24.92 -0.5 31.2 67 -5.9 21.4
06:05 1015 29.97 844 24.92 -0.6 31 66 -6.1 21.1
06:10 1015 29.97 844 24.92 -0.7 30.8 66 -6.2 20.8
06:15 1015 29.97 844 24.92 -0.7 30.7 66 -6.3 20.7
06:20 1015 29.97 844 24.92 -0.8 30.6 66 -6.3 20.6
06:25 1015 29.97 844 24.92 -0.9 30.4 66 -6.5 20.3
06:30 1015 29.97 844 24.92 -1 30.2 66 -6.5 20.2
06:35 1015 29.97 844 24.92 -1 30.2 66 -6.6 20.1
06:40 1015 29.97 844 24.92 -1 30.3 66 -6.6 20.2
06:45 1015 29.97 844 24.92 -1 30.3 66 -6.5 20.3
06:50 1015 29.97 844 24.92 -0.9 30.3 67 -6.4 20.5
06:55 1015 29.97 844 24.92 -0.9 30.3 67 -6.4 20.5
07:00 1015 29.97 844 24.92 -1 30.3 67 -6.4 20.5
07:05 1015 29.97 844 24.92 -0.9 30.4 67 -6.2 20.8
07:10 1015 29.97 844 24.92 -0.8 30.5 68 -6 21.2
07:15 1015 29.97 844 24.92 -0.8 30.5 68 -6 21.3
07:20 1015 29.97 844 24.92 -0.8 30.5 68 -5.9 21.3
07:25 1015 29.97 844 24.92 -0.9 30.4 69 -5.9 21.5
07:30 1015 29.97 844 24.92 -1.1 30.1 71 -5.8 21.6
07:35 1015 29.97 844 24.92 -1.2 29.8 72 -5.7 21.7
07:40 1015 29.97 844 24.92 -1.3 29.7 73 -5.5 22
07:45 1015 29.97 844 24.92 -1.3 29.6 74 -5.4 22.2
07:50 1015 29.97 844 24.92 -1.3 29.6 75 -5.3 22.5
07:55 1015 29.97 844 24.92 -1.3 29.6 75 -5.1 22.8
08:00 1015 29.97 844 24.92 -1.3 29.7 76 -5 23
08:05 1015 29.97 844 24.92 -1.3 29.7 76 -4.9 23.2
08:10 1015 29.97 844 24.92 -1.3 29.7 77 -4.8 23.3
08:15 1015 29.97 844 24.92 -1.2 29.8 77 -4.8 23.4
08:20 1015 29.97 844 24.92 -1.2 29.9 77 -4.8 23.4
08:25 1015 29.97 844 24.92 -1 30.2 76 -4.7 23.6
08:30 1015 29.97 844 24.92 -1 30.2 77 -4.6 23.7
08:35 1015 29.97 844 24.92 -1 30.3 77 -4.6 23.8
08:40 1015 29.97 844 24.92 -1 30.3 77 -4.5 23.9
08:45 1015 29.97 844 24.92 -0.9 30.3 77 -4.5 23.9
08:50 1015 29.97 844 24.92 -0.9 30.4 76 -4.6 23.7
08:55 1015 29.97 844 24.92 -0.9 30.5 75 -4.7 23.5
09:00 1015 29.97 844 24.92 -0.8 30.6 75 -4.7 23.6
09:05 1015 29.97 844 24.92 -0.7 30.8 73 -4.9 23.1
09:10 1015 29.97 844 24.92 -0.6 31 73 -4.8 23.3
09:15 1015 29.97 844 24.92 -0.5 31.2 72 -4.8 23.3
09:20 1015 29.97 844 24.92 -0.3 31.4 71 -4.9 23.2
09:25 1015 29.97 844 24.92 -0.3 31.5 71 -4.9 23.2
09:30 1015 29.97 844 24.92 -0.3 31.5 71 -5 23.1
09:35 1015 29.97 844 24.92 -0.2 31.7 70 -5 23
09:40 1015 29.97 844 24.92 -0.1 31.8 69 -5.1 22.8
09:45 1015 29.97 844 24.92 0 32 68 -5.1 22.8
09:50 1015 29.97 844 24.92 0 32 68 -5.2 22.6
09:55 1015 29.97 844 24.92 0.3 32.5 67 -5.1 22.7
10:00 1015 29.97 844 24.92 0.4 32.7 66 -5.2 22.7
10:05 1015 29.97 844 24.92 0.6 33 66 -5.1 22.7
10:10 1015 29.97 844 24.92 0.6 33.2 65 -5.1 22.8
10:15 1015 29.97 844 24.92 0.7 33.2 66 -5 23
10:20 1015 29.97 844 24.92 0.6 33 67 -4.9 23.1
10:25 1015 29.97 844 24.92 0.5 32.9 61 -6.2 20.9
10:30 1015 29.97 844 24.92 0.3 32.6 58 -7 19.4
10:35 1015 29.97 844 24.92 0.4 32.7 57 -7.2 19.1
10:40 1015 29.97 844 24.92 0.6 33.1 56 -7.1 19.3
10:45 1015 29.97 844 24.92 0.6 33.1 57 -7 19.4
10:50 1015 29.97 844 24.92 0.8 33.4 55 -7.3 18.9
10:55 1015 29.97 844 24.92 1.3 34.3 51 -7.9 17.8
11:00 1015 29.97 844 24.92 1.3 34.4 50 -7.9 17.8
11:05 1015 29.97 844 24.92 0.8 33.5 51 -8.1 17.3
11:10 1014 29.94 844 24.92 1 33.9 50 -8.2 17.3
11:15 1014 29.94 844 24.92 1.4 34.6 51 -7.7 18.1
11:20 1014 29.94 844 24.92 2.1 35.7 49 -7.5 18.5
11:25 1014 29.94 844 24.92 2.5 36.6 48 -7.4 18.7
11:30 1014 29.94 843 24.89 2.3 36.1 49 -7.3 18.8
11:35 1014 29.94 843 24.89 2.2 36 50 -7.2 19
11:40 1014 29.94 843 24.89 2.8 37 49 -6.9 19.5
11:45 1014 29.94 843 24.89 2.8 37.1 48 -7.1 19.3
11:50 1014 29.94 844 24.92 2.9 37.3 48 -6.9 19.6
11:55 1014 29.94 843 24.89 2.7 36.8 52 -6.2 20.8
12:00 1014 29.94 844 24.92 2.6 36.7 48 -7.3 18.9
12:05 1014 29.94 844 24.92 2.7 36.9 50 -6.8 19.7
12:10 1014 29.94 843 24.89 2.7 36.9 48 -7.2 19
12:15 1014 29.94 844 24.92 2.7 36.8 48 -7.3 18.9
12:20 1014 29.94 844 24.92 2.7 36.8 47 -7.5 18.4
12:25 1014 29.94 844 24.92 3.1 37.6 46 -7.3 18.8
12:30 1014 29.94 843 24.89 3.2 37.8 46 -7.4 18.6
12:35 1014 29.94 843 24.89 3.6 38.5 45 -7.1 19.2
12:40 1014 29.94 843 24.89 3.9 38.9 46 -6.8 19.8
12:45 1014 29.94 843 24.89 3.2 37.8 50 -6.4 20.5
12:50 1014 29.94 843 24.89 3.6 38.5 47 -6.5 20.2
12:55 1014 29.94 843 24.89 3.5 38.3 49 -6.4 20.6
13:00 1014 29.94 843 24.89 3.6 38.6 46 -6.8 19.8
13:05 1014 29.94 843 24.89 3.7 38.7 48 -6.3 20.6
13:10 1014 29.94 843 24.89 3.1 37.5 49 -6.7 20
13:15 1014 29.94 843 24.89 2.7 36.9 50 -6.6 20
13:20 1014 29.94 843 24.89 3.1 37.6 49 -6.6 20.2
13:25 1014 29.94 843 24.89 3.4 38.2 47 -6.8 19.8
13:30 1014 29.94 843 24.89 3.9 38.9 49 -6 21.2
13:35 1014 29.94 843 24.89 4 39.2 47 -6.2 20.9
13:40 1014 29.94 843 24.89 3.7 38.6 50 -5.7 21.7
13:45 1014 29.94 843 24.89 2.8 37.1 51 -6.3 20.7
13:50 1014 29.94 843 24.89 3.5 38.2 51 -5.8 21.5
13:55 1014 29.94 843 24.89 3.7 38.7 49 -6 21.2
14:00 1014 29.94 843 24.89 3.9 39 47 -6.4 20.5
14:05 1014 29.94 843 24.89 4 39.1 49 -5.9 21.4
14:10 1013 29.91 843 24.89 4.3 39.8 45 -6.4 20.4
14:15 1013 29.91 843 24.89 4.4 39.9 47 -6 21.2
14:20 1013 29.91 843 24.89 4.6 40.2 45 -6.3 20.6
14:25 1013 29.91 842 24.86 4.6 40.2 47 -5.8 21.6
14:30 1013 29.91 842 24.86 4.4 40 47 -6 21.3
14:35 1013 29.91 842 24.86 3.5 38.3 49 -6.2 20.8
14:40 1013 29.91 842 24.86 3.9 38.9 48 -6.2 20.8
14:45 1013 29.91 842 24.86 3.8 38.9 48 -6.2 20.8
14:50 1013 29.91 842 24.86 4.2 39.6 46 -6.5 20.4
14:55 1013 29.91 842 24.86 4.5 40.2 44 -6.5 20.2
15:00 1013 29.91 842 24.86 3.5 38.3 49 -6.2 20.8
15:05 1013 29.91 842 24.86 3.5 38.2 47 -6.8 19.7
15:10 1013 29.91 842 24.86 3.5 38.3 48 -6.5 20.2
15:15 1013 29.91 842 24.86 3.1 37.6 50 -6.4 20.5
15:20 1013 29.91 842 24.86 3.1 37.5 51 -6.1 20.9
15:25 1013 29.91 842 24.86 3 37.5 52 -5.9 21.4
15:30 1013 29.91 842 24.86 2.9 37.1 55 -5.4 22.3
15:35 1013 29.91 842 24.86 2.7 36.8 57 -5.1 22.8
15:40 1013 29.91 842 24.86 2.8 37 58 -4.7 23.6
15:45 1013 29.91 842 24.86 2.8 37.1 56 -5.1 22.8
15:50 1013 29.91 842 24.86 2.3 36.2 60 -4.6 23.7
15:55 1013 29.91 842 24.86 2.3 36.1 57 -5.4 22.3
16:00 1013 29.91 842 24.86 2.6 36.7 56 -5.4 22.4
16:05 1013 29.91 842 24.86 2.5 36.5 58 -4.9 23.1
16:10 1013 29.91 842 24.86 2.5 36.4 59 -4.8 23.3
16:15 1013 29.91 842 24.86 2.7 36.9 54 -5.6 21.9
16:20 1013 29.91 842 24.86 2.7 36.9 55 -5.4 22.3
16:25 1013 29.91 842 24.86 2.5 36.4 54 -5.9 21.4
16:30 1013 29.91 842 24.86 2.6 36.7 52 -6.2 20.8
16:35 1013 29.91 842 24.86 2.7 36.9 52 -6.2 20.9
16:40 1013 29.91 842 24.86 2.7 36.8 52 -6.1 20.9
16:45 1013 29.91 842 24.86 3.3 37.9 51 -6 21.2
16:50 1013 29.91 842 24.86 4 39.2 49 -5.8 21.5
16:55 1013 29.91 842 24.86 4.7 40.5 45 -6.1 21
17:00 1013 29.91 842 24.86 4.6 40.4 47 -5.7 21.8
17:05 1013 29.91 842 24.86 4.1 39.4 47 -6.3 20.6
17:10 1013 29.91 842 24.86 4.2 39.6 47 -6.1 21.1
17:15 1013 29.91 842 24.86 4.4 40 44 -6.8 19.7
17:20 1013 29.91 842 24.86 4.9 40.9 42 -6.9 19.5
17:25 1013 29.91 842 24.86 5.2 41.3 42 -6.8 19.7
17:30 1013 29.91 842 24.86 5.5 41.9 40 -6.9 19.6
17:35 1013 29.91 842 24.86 5.4 41.7 42 -6.4 20.4
17:40 1013 29.91 842 24.86 5.1 41.1 45 -6 21.2
17:45 1013 29.91 842 24.86 5.2 41.4 43 -6.4 20.5
17:50 1013 29.91 842 24.86 5.2 41.3 44 -6 21.2
17:55 1013 29.91 842 24.86 4.7 40.5 45 -6.2 20.8
18:00 1013 29.91 842 24.86 4.9 40.8 43 -6.7 20
18:05 1013 29.91 842 24.86 5.1 41.1 43 -6.6 20.1
18:10 1013 29.91 842 24.86 5.5 41.8 42 -6.5 20.3
18:15 1013 29.91 842 24.86 5 41.1 43 -6.4 20.4
18:20 1013 29.91 842 24.86 4.5 40.1 44 -6.6 20.1
18:25 1013 29.91 842 24.86 4.3 39.7 46 -6.4 20.6
18:30 1013 29.91 842 24.86 4.1 39.4 46 -6.6 20.1
18:35 1013 29.91 842 24.86 4.1 39.3 46 -6.5 20.3
18:40 1013 29.91 842 24.86 4 39.2 49 -5.9 21.4
18:45 1013 29.91 842 24.86 3.6 38.6 50 -5.9 21.3
18:50 1013 29.91 842 24.86 3.5 38.3 49 -6.3 20.7
18:55 1013 29.91 842 24.86 3.6 38.5 50 -5.9 21.3
19:00 1013 29.91 842 24.86 3.3 37.9 52 -5.8 21.6
19:05 1013 29.91 842 24.86 2.8 37.1 52 -6 21.1
19:10 1013 29.91 842 24.86 2.7 36.8 54 -5.6 21.9
19:15 1013 29.91 842 24.86 2.5 36.4 54 -5.9 21.5
19:20 1013 29.91 842 24.86 2.4 36.4 54 -5.9 21.4
19:25 1013 29.91 842 24.86 2.4 36.3 55 -5.8 21.6
19:30 1013 29.91 842 24.86 2.4 36.3 56 -5.6 21.9
19:35 1013 29.91 842 24.86 2.2 35.9 58 -5.3 22.5
19:40 1013 29.91 842 24.86 1.8 35.2 59 -5.5 22.1
19:45 1013 29.91 842 24.86 1.7 35 58 -5.6 21.9
19:50 1013 29.91 842 24.86 1.6 35 59 -5.5 22.1
19:55 1013 29.91 843 24.89 1.5 34.7 60 -5.5 22.1
20:00 1013 29.91 843 24.89 1.4 34.5 60 -5.5 22.2
20:05 1013 29.91 843 24.89 1.3 34.3 61 -5.3 22.4
20:10 1014 29.94 843 24.89 0.9 33.6 64 -5.1 22.8
20:15 1014 29.94 843 24.89 0.5 32.8 65 -5.3 22.5
20:20 1014 29.94 843 24.89 0.2 32.3 66 -5.6 22
20:25 1014 29.94 843 24.89 0.2 32.4 65 -5.5 22.1
20:30 1014 29.94 843 24.89 0.1 32.2 66 -5.5 22.2
20:35 1014 29.94 843 24.89 0.1 32.2 65 -5.6 21.9
20:40 1014 29.94 843 24.89 0.4 32.7 63 -5.8 21.6
20:45 1014 29.94 843 24.89 0.4 32.7 64 -5.7 21.8
20:50 1014 29.94 843 24.89 0.3 32.6 64 -5.7 21.8
20:55 1014 29.94 843 24.89 0.1 32.2 65 -5.8 21.6
21:00 1014 29.94 843 24.89 0.1 32.2 64 -5.8 21.6
21:05 1014 29.94 843 24.89 -0.2 31.7 66 -5.7 21.7
21:10 1014 29.94 843 24.89 -0.5 31.2 66 -6.1 21
21:15 1014 29.94 843 24.89 -0.5 31.1 66 -6 21.2
21:20 1014 29.94 843 24.89 -0.7 30.7 67 -6 21.1
21:25 1014 29.94 843 24.89 -0.9 30.4 67 -6.2 20.8
21:30 1014 29.94 843 24.89 -0.9 30.3 67 -6.3 20.7
21:35 1014 29.94 843 24.89 -0.9 30.4 67 -6.4 20.5
21:40 1014 29.94 843 24.89 -0.7 30.7 66 -6.3 20.7
21:45 1014 29.94 843 24.89 -0.9 30.4 66 -6.4 20.4
21:50 1014 29.94 843 24.89 -0.9 30.4 66 -6.4 20.4
21:55 1014 29.94 844 24.92 -0.9 30.4 66 -6.4 20.5
22:00 1014 29.94 844 24.92 -1.1 30 68 -6.3 20.6
22:05 1014 29.94 844 24.92 -1.2 29.8 68 -6.4 20.4
22:10 1014 29.94 844 24.92 -1.1 30 68 -6.4 20.5
22:15 1014 29.94 844 24.92 -1.3 29.7 68 -6.3 20.6
22:20 1014 29.94 844 24.92 -1.4 29.5 68 -6.5 20.3
22:25 1014 29.94 844 24.92 -1.4 29.5 69 -6.5 20.4
22:30 1014 29.94 844 24.92 -1.5 29.3 68 -6.6 20.2
22:35 1014 29.94 844 24.92 -1.5 29.3 68 -6.6 20.1
22:40 1015 29.97 844 24.92 -1.4 29.4 68 -6.6 20
22:45 1015 29.97 844 24.92 -1.2 29.8 66 -6.7 20
22:50 1015 29.97 844 24.92 -1.1 30 67 -6.5 20.3
22:55 1015 29.97 844 24.92 -1.2 29.8 67 -6.6 20.2
23:00 1015 29.97 844 24.92 -1.2 29.8 67 -6.6 20.1
23:05 1015 29.97 844 24.92 -1.3 29.7 67 -6.7 20
23:10 1015 29.97 844 24.92 -1.4 29.4 67 -6.7 19.9
23:15 1015 29.97 844 24.92 -1.6 29.1 68 -6.8 19.8
23:20 1015 29.97 844 24.92 -1.7 28.9 69 -6.7 19.9
23:25 1015 29.97 844 24.92 -1.9 28.6 70 -6.6 20.1
23:30 1015 29.97 844 24.92 -1.9 28.5 71 -6.5 20.3
23:35 1015 29.97 844 24.92 -1.9 28.5 71 -6.5 20.3
23:40 1015 29.97 844 24.92 -2 28.5 71 -6.6 20.1
23:45 1015 29.97 844 24.92 -2.1 28.2 71 -6.7 20
23:50 1015 29.97 844 24.92 -2.1 28.2 71 -6.8 19.8
23:55 1015 29.97 844 24.92 -2.1 28.1 72 -6.6 20.1
24:00 1015 29.97 844 24.92 -2.1 28.3 72 -6.5 20.3